Time;durP1;ratioP1;P1;durP2;ratioP2;P2;SDS_P1;SDS_P2;PMS_P1;PMS_P2;Temp;Humidity;BMP_temperature;BMP_pressure;BME280_temperature;BME280_humidity;BME280_pressure;Samples;Min_cycle;Max_cycle;Signal;HPM_P1;HPM_P2
2021/12/19 00:03:56;;;;;;;15.10;7.90;;;8.30;99.90;;;;;;5078374;28;20216;-55
2021/12/19 00:09:09;;;;;;;12.37;6.37;;;8.40;99.90;;;;;;5082320;28;20263;-57
2021/12/19 00:11:36;;;;;;;12.57;6.63;;;8.40;99.90;;;;;;5083064;28;20228;-56
2021/12/19 00:14:04;;;;;;;12.93;6.07;;;8.30;99.90;;;;;;5084147;28;20236;-57
2021/12/19 00:16:31;;;;;;;12.77;6.97;;;8.30;99.90;;;;;;5080701;28;20237;-54
2021/12/19 00:18:59;;;;;;;12.57;6.37;;;8.40;99.90;;;;;;5071274;28;20731;-57
2021/12/19 00:21:26;;;;;;;13.43;6.73;;;8.40;99.90;;;;;;5074917;28;20257;-56
2021/12/19 00:23:54;;;;;;;14.83;8.00;;;8.40;99.90;;;;;;5079149;28;20216;-56
2021/12/19 00:26:21;;;;;;;18.70;8.70;;;8.30;99.90;;;;;;5080753;28;20200;-55
2021/12/19 00:28:49;;;;;;;13.60;7.23;;;8.20;99.90;;;;;;5063770;28;20191;-54
2021/12/19 00:31:16;;;;;;;17.17;8.00;;;8.10;99.90;;;;;;5084721;28;20435;-55
2021/12/19 00:33:43;;;;;;;13.77;7.37;;;8.10;99.90;;;;;;5084767;28;20645;-57
2021/12/19 00:36:11;;;;;;;17.50;8.30;;;8.20;99.90;;;;;;5076850;28;20224;-55
2021/12/19 00:38:38;;;;;;;20.13;8.53;;;8.20;99.90;;;;;;5077592;28;20213;-55
2021/12/19 00:41:06;;;;;;;18.93;7.70;;;8.00;99.90;;;;;;5078190;28;20222;-58
2021/12/19 00:46:07;;;;;;;19.67;8.90;;;8.10;99.90;;;;;;5081924;28;20262;-57
2021/12/19 00:48:43;;;;;;;19.93;9.50;;;8.00;99.90;;;;;;5064403;28;20322;-55
2021/12/19 00:51:14;;;;;;;24.37;9.43;;;7.80;99.90;;;;;;5081866;28;20203;-56
2021/12/19 00:53:43;;;;;;;21.60;9.70;;;7.80;99.90;;;;;;5082700;28;20193;-58
2021/12/19 00:56:10;;;;;;;24.07;10.70;;;7.80;99.90;;;;;;5072917;28;20622;-55
2021/12/19 00:58:37;;;;;;;23.57;9.37;;;7.70;99.90;;;;;;5067957;28;20851;-55
2021/12/19 01:01:06;;;;;;;22.00;9.20;;;7.80;99.90;;;;;;5064956;28;20310;-57
2021/12/19 01:03:34;;;;;;;23.17;9.77;;;7.80;99.90;;;;;;5067128;28;20271;-57
2021/12/19 01:06:02;;;;;;;18.67;9.37;;;7.70;99.90;;;;;;5074366;28;20234;-57
2021/12/19 01:08:28;;;;;;;23.93;10.00;;;7.80;99.90;;;;;;5074065;28;20228;-56
2021/12/19 01:10:56;;;;;;;26.00;10.60;;;7.80;99.90;;;;;;5066462;28;20191;-56
2021/12/19 01:13:23;;;;;;;19.50;8.60;;;7.90;99.90;;;;;;5069624;28;20233;-57
2021/12/19 01:15:51;;;;;;;21.17;9.50;;;7.80;99.90;;;;;;5066861;28;20242;-57
2021/12/19 01:18:18;;;;;;;24.13;9.20;;;7.70;99.90;;;;;;5050309;28;20201;-54
2021/12/19 01:20:45;;;;;;;26.87;10.00;;;7.70;99.90;;;;;;5066126;28;20193;-57
2021/12/19 01:23:12;;;;;;;20.33;9.27;;;7.60;99.90;;;;;;5074666;28;20666;-56
2021/12/19 01:25:39;;;;;;;21.97;9.03;;;7.50;99.90;;;;;;5069208;28;20308;-54
2021/12/19 01:28:06;;;;;;;20.93;10.03;;;7.70;99.90;;;;;;5064731;28;20209;-54
2021/12/19 01:30:33;;;;;;;21.33;10.30;;;7.80;99.90;;;;;;5070865;28;20221;-57
2021/12/19 01:33:00;;;;;;;26.23;11.03;;;7.90;99.90;;;;;;5068901;28;20191;-56
2021/12/19 01:35:27;;;;;;;17.23;9.37;;;7.90;99.90;;;;;;5064137;28;20187;-55
2021/12/19 01:37:54;;;;;;;19.37;9.67;;;7.80;99.90;;;;;;5065370;28;20251;-57
2021/12/19 01:40:22;;;;;;;17.90;8.87;;;7.80;99.90;;;;;;5067322;28;20228;-55
2021/12/19 01:42:55;;;;;;;16.10;8.30;;;7.70;99.90;;;;;;5068999;28;20573;-58
2021/12/19 01:45:31;;;;;;;21.03;8.33;;;7.70;99.90;;;;;;5061101;28;20680;-56
2021/12/19 01:47:59;;;;;;;16.30;8.97;;;7.80;99.90;;;;;;5054779;28;20193;-55
2021/12/19 01:50:27;;;;;;;19.20;8.77;;;7.90;99.90;;;;;;5061488;28;20204;-55
2021/12/19 01:52:54;;;;;;;17.83;8.30;;;7.90;99.90;;;;;;5064663;28;20264;-55
2021/12/19 01:55:21;;;;;;;19.37;8.87;;;7.90;99.90;;;;;;5076874;28;20341;-55
2021/12/19 01:57:48;;;;;;;18.53;9.47;;;7.90;99.90;;;;;;5066377;28;20203;-55
2021/12/19 02:00:25;;;;;;;19.97;8.67;;;7.80;99.90;;;;;;5070366;28;20280;-57
2021/12/19 02:02:53;;;;;;;19.07;9.03;;;7.80;99.90;;;;;;5073474;28;20252;-54
2021/12/19 02:05:21;;;;;;;20.03;9.83;;;7.70;99.90;;;;;;5065044;28;20212;-56
2021/12/19 02:07:49;;;;;;;22.50;9.77;;;7.70;99.90;;;;;;5067585;28;20305;-57
2021/12/19 02:10:19;;;;;;;22.03;10.47;;;7.70;99.90;;;;;;5069395;28;20723;-56
2021/12/19 02:12:48;;;;;;;18.37;10.13;;;7.70;99.90;;;;;;5066081;28;20208;-55
2021/12/19 02:15:19;;;;;;;20.80;10.47;;;7.60;99.90;;;;;;5071152;28;20251;-55
2021/12/19 02:17:48;;;;;;;22.43;11.17;;;7.60;99.90;;;;;;5061294;28;20202;-55
2021/12/19 02:20:16;;;;;;;21.27;8.87;;;7.60;99.90;;;;;;5075720;28;20208;-55
2021/12/19 02:22:44;;;;;;;23.17;10.00;;;7.60;99.90;;;;;;5074931;28;20214;-57
2021/12/19 02:25:14;;;;;;;20.20;10.20;;;7.60;99.90;;;;;;5073698;28;20220;-55
2021/12/19 02:27:41;;;;;;;19.87;8.97;;;7.60;99.90;;;;;;5051221;28;20230;-55
2021/12/19 02:30:10;;;;;;;19.70;9.93;;;7.60;99.90;;;;;;5055206;28;20204;-55
2021/12/19 02:32:39;;;;;;;17.07;8.73;;;7.50;99.90;;;;;;5069607;28;20229;-57
2021/12/19 02:35:15;;;;;;;16.73;8.07;;;7.40;99.90;;;;;;5045312;28;20290;-55
2021/12/19 02:48:32;;;;;;;23.03;8.93;;;7.40;99.90;;;;;;5066295;28;20207;-54
2021/12/19 02:51:01;;;;;;;20.27;8.27;;;7.40;99.90;;;;;;5066777;28;20309;-55
2021/12/19 02:53:32;;;;;;;12.90;6.77;;;7.40;99.90;;;;;;5066976;28;20207;-57
2021/12/19 02:56:06;;;;;;;11.67;5.37;;;7.30;99.90;;;;;;5069114;28;20295;-55
2021/12/19 02:58:35;;;;;;;8.20;4.80;;;7.20;99.90;;;;;;5070033;28;20511;-55
2021/12/19 03:01:05;;;;;;;11.27;5.33;;;7.20;99.90;;;;;;5069940;28;22367;-58
2021/12/19 03:03:32;;;;;;;12.77;5.40;;;7.30;99.90;;;;;;5069931;28;20205;-56
2021/12/19 03:05:59;;;;;;;11.50;5.87;;;7.30;99.90;;;;;;5066790;28;20219;-56
2021/12/19 03:08:26;;;;;;;12.13;6.17;;;7.30;99.90;;;;;;5067581;28;20236;-55
2021/12/19 03:19:03;;;;;;;6.93;3.10;;;7.10;99.90;;;;;;5069998;28;20299;-57
2021/12/19 03:21:30;;;;;;;6.60;3.40;;;7.10;99.90;;;;;;5070765;28;20652;-57
2021/12/19 03:23:57;;;;;;;6.17;3.63;;;7.10;99.90;;;;;;5069267;28;20301;-57
2021/12/19 03:26:24;;;;;;;5.00;2.60;;;7.00;99.90;;;;;;5069163;28;20787;-56
2021/12/19 03:28:51;;;;;;;4.57;3.13;;;7.00;99.90;;;;;;5067691;28;20264;-55
2021/12/19 03:31:18;;;;;;;4.90;2.50;;;7.00;99.90;;;;;;5071464;28;20276;-55
2021/12/19 03:33:45;;;;;;;5.80;2.63;;;6.90;99.90;;;;;;5067071;28;20230;-57
2021/12/19 03:36:12;;;;;;;4.47;2.47;;;6.90;99.90;;;;;;5054151;28;20265;-56
2021/12/19 03:38:42;;;;;;;5.17;2.73;;;6.90;99.90;;;;;;5047300;28;20295;-57
2021/12/19 03:43:40;;;;;;;5.63;2.90;;;6.80;99.90;;;;;;5071114;28;20282;-56
2021/12/19 03:46:07;;;;;;;3.93;2.00;;;6.90;99.90;;;;;;5065072;28;20306;-56
2021/12/19 03:48:34;;;;;;;4.53;2.20;;;6.80;99.90;;;;;;5069496;28;20276;-56
2021/12/19 03:51:00;;;;;;;4.77;2.90;;;6.90;99.90;;;;;;5070937;28;20236;-55
2021/12/19 03:53:27;;;;;;;2.53;2.00;;;6.90;99.90;;;;;;5064038;28;20721;-57
2021/12/19 03:55:54;;;;;;;6.27;2.40;;;7.10;99.90;;;;;;5066331;28;20202;-56
2021/12/19 03:58:21;;;;;;;5.07;2.43;;;7.10;99.90;;;;;;5064445;28;20203;-56
2021/12/19 04:00:50;;;;;;;5.20;2.50;;;7.00;99.90;;;;;;5072031;28;20283;-55
2021/12/19 04:03:20;;;;;;;5.70;2.83;;;7.00;99.90;;;;;;5069075;28;20595;-55
2021/12/19 04:05:50;;;;;;;7.07;2.83;;;6.70;99.90;;;;;;5067395;28;20591;-56
2021/12/19 04:08:18;;;;;;;6.40;2.93;;;6.90;99.90;;;;;;5067574;28;20296;-56
2021/12/19 04:10:47;;;;;;;4.33;2.60;;;7.10;99.90;;;;;;5068945;28;20234;-56
2021/12/19 04:13:16;;;;;;;6.57;3.10;;;7.20;99.90;;;;;;5069593;28;20203;-56
2021/12/19 04:15:43;;;;;;;4.13;2.00;;;7.20;99.90;;;;;;5068351;28;20287;-56
2021/12/19 04:18:10;;;;;;;5.50;2.90;;;7.10;99.90;;;;;;5067392;28;22048;-56
2021/12/19 04:20:37;;;;;;;5.53;2.70;;;7.10;99.90;;;;;;5067216;28;20824;-58
2021/12/19 04:23:04;;;;;;;4.63;2.57;;;7.00;99.90;;;;;;5069495;28;20203;-56
2021/12/19 04:25:31;;;;;;;3.90;2.40;;;6.90;99.90;;;;;;5068061;28;20676;-56
2021/12/19 04:27:58;;;;;;;4.77;2.50;;;7.10;99.90;;;;;;5065872;28;20196;-57
2021/12/19 04:30:26;;;;;;;5.07;2.73;;;7.00;99.90;;;;;;5072588;28;20211;-57
2021/12/19 04:33:03;;;;;;;5.67;2.57;;;7.10;99.90;;;;;;5069514;28;20295;-56
2021/12/19 04:35:34;;;;;;;6.33;3.10;;;7.20;99.90;;;;;;5063597;28;20220;-55
2021/12/19 05:00:14;;;;;;;4.90;2.50;;;7.20;99.90;;;;;;5024018;28;20237;-56
2021/12/19 05:16:13;;;;;;;5.10;2.13;;;7.10;99.90;;;;;;5067955;28;20294;-56
2021/12/19 05:18:42;;;;;;;6.47;2.43;;;7.20;99.90;;;;;;5061343;28;20659;-54
2021/12/19 05:21:16;;;;;;;4.47;2.57;;;7.30;99.90;;;;;;5060936;28;20207;-57
2021/12/19 05:26:17;;;;;;;5.50;2.40;;;7.30;99.90;;;;;;5072036;28;20251;-56
2021/12/19 05:28:44;;;;;;;3.70;2.17;;;7.20;99.90;;;;;;5070659;28;20235;-55
2021/12/19 05:31:10;;;;;;;5.27;2.60;;;7.10;99.90;;;;;;5077021;28;20807;-55
2021/12/19 05:33:37;;;;;;;6.43;2.80;;;7.20;99.90;;;;;;5058885;28;20195;-56
2021/12/19 05:46:42;;;;;;;4.13;2.67;;;7.10;99.90;;;;;;5073248;28;20294;-57
2021/12/19 05:49:10;;;;;;;5.67;3.17;;;7.30;99.90;;;;;;5049314;28;20201;-55
2021/12/19 05:51:38;;;;;;;4.67;2.33;;;7.30;99.90;;;;;;5059647;28;20212;-56
2021/12/19 05:54:10;;;;;;;5.70;2.90;;;7.30;99.90;;;;;;5070980;28;20206;-56
2021/12/19 05:56:41;;;;;;;7.63;2.83;;;7.40;99.90;;;;;;5075376;28;20196;-55
2021/12/19 05:59:08;;;;;;;4.40;2.30;;;7.20;99.90;;;;;;5078895;28;20198;-57
2021/12/19 06:01:37;;;;;;;5.07;2.50;;;7.40;99.90;;;;;;5079291;28;20281;-57
2021/12/19 06:04:04;;;;;;;5.50;2.87;;;7.40;99.90;;;;;;5076771;28;20205;-55
2021/12/19 06:06:31;;;;;;;5.63;2.60;;;7.30;99.90;;;;;;5080273;28;20224;-55
2021/12/19 06:08:58;;;;;;;4.60;2.80;;;7.30;99.90;;;;;;5080996;28;20293;-55
2021/12/19 06:11:25;;;;;;;5.17;2.37;;;7.20;99.90;;;;;;5071273;28;20294;-55
2021/12/19 06:13:52;;;;;;;5.87;2.50;;;7.30;99.90;;;;;;5075302;28;20209;-54
2021/12/19 06:16:19;;;;;;;5.63;2.73;;;7.30;99.90;;;;;;5076127;28;20312;-57
2021/12/19 06:18:47;;;;;;;5.43;2.83;;;7.40;99.90;;;;;;5076893;28;20459;-56
2021/12/19 06:21:14;;;;;;;8.30;3.50;;;7.30;99.90;;;;;;5081241;28;20230;-56
2021/12/19 06:23:40;;;;;;;7.37;3.37;;;7.40;99.90;;;;;;5059141;28;20208;-55
2021/12/19 06:26:10;;;;;;;5.67;3.20;;;7.40;99.90;;;;;;5076236;28;20211;-56
2021/12/19 06:28:37;;;;;;;6.20;3.30;;;7.30;99.90;;;;;;5078510;28;20647;-58
2021/12/19 06:31:04;;;;;;;7.03;3.50;;;7.20;99.90;;;;;;5080495;28;20254;-55
2021/12/19 06:33:32;;;;;;;8.57;3.47;;;7.40;99.90;;;;;;5080469;28;20200;-55
2021/12/19 06:35:59;;;;;;;5.70;3.40;;;7.50;99.90;;;;;;5073751;28;20599;-58
2021/12/19 06:38:26;;;;;;;9.10;4.00;;;7.60;99.90;;;;;;5078842;28;20311;-55
2021/12/19 06:40:53;;;;;;;8.17;4.00;;;7.60;99.90;;;;;;5074973;28;20356;-57
2021/12/19 06:43:20;;;;;;;9.17;3.77;;;7.70;99.90;;;;;;5078875;28;20257;-56
2021/12/19 06:45:48;;;;;;;8.97;3.87;;;7.70;99.90;;;;;;5079517;28;20226;-55
2021/12/19 06:48:15;;;;;;;7.13;4.23;;;7.80;99.90;;;;;;5077651;28;20718;-57
2021/12/19 06:50:42;;;;;;;6.80;4.27;;;7.70;99.90;;;;;;5074192;28;20204;-56
2021/12/19 06:53:09;;;;;;;7.90;4.53;;;7.80;99.90;;;;;;5078449;28;20653;-57
2021/12/19 06:55:37;;;;;;;8.77;4.13;;;7.80;99.90;;;;;;5073307;28;20249;-56
2021/12/19 06:58:04;;;;;;;7.97;4.53;;;7.80;99.90;;;;;;5057339;28;20623;-55
2021/12/19 07:00:31;;;;;;;7.70;4.47;;;7.70;99.90;;;;;;5064902;28;20508;-58
2021/12/19 07:02:58;;;;;;;6.40;4.07;;;7.70;99.90;;;;;;5066927;28;20253;-55
2021/12/19 07:05:25;;;;;;;9.60;4.77;;;7.80;99.90;;;;;;5070123;28;21354;-56
2021/12/19 07:07:53;;;;;;;9.23;4.90;;;7.80;99.90;;;;;;5063169;28;20205;-58
2021/12/19 07:10:19;;;;;;;8.37;4.87;;;7.80;99.90;;;;;;5067490;28;20248;-57
2021/12/19 07:12:46;;;;;;;6.77;4.47;;;7.90;99.90;;;;;;5070782;28;20198;-55
2021/12/19 07:15:14;;;;;;;9.17;4.90;;;7.70;99.90;;;;;;5074501;28;20563;-57
2021/12/19 07:17:41;;;;;;;8.63;4.30;;;7.80;99.90;;;;;;5063043;28;20947;-56
2021/12/19 07:20:09;;;;;;;6.50;3.57;;;7.80;99.90;;;;;;5069033;28;20240;-55
2021/12/19 07:22:36;;;;;;;8.63;5.13;;;7.80;99.90;;;;;;5068777;28;20227;-57
2021/12/19 07:25:03;;;;;;;9.20;4.30;;;7.80;99.90;;;;;;5073414;28;20282;-56
2021/12/19 07:27:30;;;;;;;7.53;3.97;;;7.80;99.90;;;;;;5066875;28;20221;-55
2021/12/19 07:29:57;;;;;;;6.53;3.63;;;7.90;99.90;;;;;;5072883;28;20699;-56
2021/12/19 07:32:25;;;;;;;7.90;3.90;;;7.90;99.90;;;;;;5067534;28;20217;-57
2021/12/19 07:35:13;;;;;;;6.27;3.43;;;7.80;99.90;;;;;;5069767;28;20218;-56
2021/12/19 07:37:41;;;;;;;5.43;3.40;;;7.90;99.90;;;;;;5063758;28;20197;-55
2021/12/19 07:40:16;;;;;;;7.17;3.47;;;7.80;99.90;;;;;;5066071;28;20249;-56
2021/12/19 07:42:44;;;;;;;5.17;3.23;;;7.80;99.90;;;;;;5071087;28;20207;-55
2021/12/19 07:45:13;;;;;;;6.30;3.37;;;7.70;99.90;;;;;;5069104;28;20566;-57
2021/12/19 07:47:42;;;;;;;4.10;2.50;;;7.70;99.90;;;;;;5065800;28;20215;-56
2021/12/19 07:50:11;;;;;;;4.63;2.63;;;7.70;99.90;;;;;;5057650;28;20203;-57
2021/12/19 07:52:38;;;;;;;3.63;1.97;;;7.80;99.90;;;;;;5065531;28;20572;-57
2021/12/19 07:55:05;;;;;;;2.30;1.57;;;7.80;99.90;;;;;;5063001;28;20200;-56
2021/12/19 07:57:33;;;;;;;3.07;1.63;;;7.80;99.90;;;;;;5049310;28;20289;-55
2021/12/19 07:59:59;;;;;;;2.77;1.27;;;7.90;99.90;;;;;;5068658;28;20229;-57
2021/12/19 08:02:27;;;;;;;2.77;1.30;;;7.90;99.90;;;;;;5061898;28;20239;-55
2021/12/19 08:04:54;;;;;;;3.97;1.97;;;7.90;99.90;;;;;;5065811;28;20647;-57
2021/12/19 08:07:23;;;;;;;1.73;1.20;;;8.00;99.90;;;;;;5066821;28;20279;-57
2021/12/19 08:12:44;;;;;;;2.60;1.10;;;7.90;99.90;;;;;;5026495;28;20665;-54
2021/12/19 08:15:11;;;;;;;1.33;1.00;;;7.80;99.90;;;;;;5067462;28;20195;-55
2021/12/19 08:17:43;;;;;;;2.10;1.23;;;7.90;99.90;;;;;;5066301;28;20606;-56
2021/12/19 08:20:10;;;;;;;2.80;1.73;;;8.00;99.90;;;;;;5071342;28;20205;-57
2021/12/19 08:22:37;;;;;;;2.53;1.77;;;8.00;99.90;;;;;;5072831;28;20225;-56
2021/12/19 08:25:05;;;;;;;3.73;2.13;;;8.00;99.90;;;;;;5068079;28;20333;-56
2021/12/19 08:27:34;;;;;;;2.93;2.07;;;7.90;99.90;;;;;;5063055;28;20795;-55
2021/12/19 08:30:03;;;;;;;4.80;2.03;;;7.90;99.90;;;;;;5063645;28;20212;-57
2021/12/19 08:32:30;;;;;;;3.77;1.90;;;7.90;99.90;;;;;;5065508;28;20205;-56
2021/12/19 08:34:57;;;;;;;3.53;1.90;;;7.90;99.90;;;;;;5062577;28;20223;-55
2021/12/19 08:37:24;;;;;;;3.53;1.97;;;8.00;99.90;;;;;;5067509;28;20223;-56
2021/12/19 08:39:50;;;;;;;4.17;2.30;;;8.00;99.90;;;;;;5067052;28;20220;-57
2021/12/19 08:42:18;;;;;;;9.63;4.40;;;7.90;99.90;;;;;;5065775;28;20234;-55
2021/12/19 08:44:45;;;;;;;4.80;2.90;;;7.90;99.90;;;;;;5066597;28;20292;-57
2021/12/19 08:47:12;;;;;;;3.17;2.00;;;7.90;99.90;;;;;;5060516;28;20232;-56
2021/12/19 08:49:40;;;;;;;5.00;2.93;;;8.00;99.90;;;;;;5066777;28;20239;-55
2021/12/19 08:52:08;;;;;;;3.93;2.70;;;8.00;99.90;;;;;;5062282;28;20204;-55
2021/12/19 08:54:36;;;;;;;3.90;2.77;;;7.80;99.90;;;;;;5059594;28;20396;-56
2021/12/19 08:57:04;;;;;;;4.77;3.20;;;7.80;99.90;;;;;;5065555;28;20288;-56
2021/12/19 08:59:31;;;;;;;5.20;2.90;;;7.90;99.90;;;;;;5063328;28;20221;-55
2021/12/19 09:02:01;;;;;;;8.30;3.40;;;7.90;99.90;;;;;;5054682;28;20265;-55
2021/12/19 09:04:31;;;;;;;4.77;3.37;;;7.90;99.90;;;;;;5070287;28;22222;-55
2021/12/19 09:06:59;;;;;;;5.00;3.37;;;8.00;99.90;;;;;;5074644;28;20224;-56
2021/12/19 09:09:27;;;;;;;5.13;3.30;;;8.00;99.90;;;;;;5075416;28;20191;-55
2021/12/19 09:11:53;;;;;;;5.00;3.37;;;8.00;99.90;;;;;;5072851;28;20270;-55
2021/12/19 09:14:20;;;;;;;6.03;3.07;;;8.10;99.90;;;;;;5062076;28;20238;-58
2021/12/19 09:16:47;;;;;;;6.17;3.77;;;8.10;99.90;;;;;;5055898;28;23581;-58
2021/12/19 09:19:15;;;;;;;6.57;4.07;;;8.10;99.90;;;;;;5055609;28;21281;-56
2021/12/19 09:21:42;;;;;;;7.47;3.70;;;8.10;99.90;;;;;;5071665;28;20309;-56
2021/12/19 09:24:09;;;;;;;8.00;4.60;;;8.20;99.90;;;;;;5063670;28;20237;-57
2021/12/19 09:26:36;;;;;;;7.80;4.60;;;8.30;99.90;;;;;;5065608;28;20268;-56
2021/12/19 09:29:03;;;;;;;10.90;5.13;;;8.30;99.90;;;;;;5040922;28;20657;-54
2021/12/19 09:31:30;;;;;;;7.53;4.23;;;8.00;99.90;;;;;;5052250;28;20275;-54
2021/12/19 09:33:57;;;;;;;9.43;6.57;;;8.10;99.90;;;;;;5070767;28;20647;-55
2021/12/19 09:36:25;;;;;;;9.07;5.17;;;8.20;99.90;;;;;;5071197;28;20217;-55
2021/12/19 09:38:53;;;;;;;8.80;4.77;;;8.20;99.90;;;;;;5070746;28;20812;-56
2021/12/19 09:41:32;;;;;;;8.20;5.00;;;8.20;99.90;;;;;;5077877;28;20285;-57
2021/12/19 09:44:04;;;;;;;8.80;4.80;;;8.20;99.90;;;;;;5060828;28;20252;-61
2021/12/19 09:46:35;;;;;;;6.53;5.40;;;8.30;99.90;;;;;;5065475;28;20249;-60
2021/12/19 09:49:04;;;;;;;10.17;5.60;;;8.30;99.90;;;;;;5045246;28;20219;-60
2021/12/19 09:51:31;;;;;;;7.13;5.00;;;8.20;99.90;;;;;;5059145;28;20298;-63
2021/12/19 09:53:58;;;;;;;9.83;5.70;;;8.30;99.90;;;;;;5064161;28;20618;-60
2021/12/19 09:56:26;;;;;;;7.13;4.60;;;8.20;99.90;;;;;;5064702;28;20239;-58
2021/12/19 09:58:53;;;;;;;10.03;6.07;;;8.10;99.90;;;;;;5062351;28;20219;-55
2021/12/19 10:01:20;;;;;;;6.07;4.17;;;8.20;99.90;;;;;;5037602;28;20235;-57
2021/12/19 10:03:47;;;;;;;7.10;3.50;;;8.30;99.90;;;;;;5071037;28;20875;-56
2021/12/19 10:06:19;;;;;;;6.17;3.93;;;8.10;99.90;;;;;;5068429;28;20261;-54
2021/12/19 10:08:49;;;;;;;5.10;3.73;;;8.20;99.90;;;;;;5067156;28;20644;-55
2021/12/19 10:11:48;;;;;;;4.67;3.00;;;8.20;99.90;;;;;;5064331;28;20867;-54
2021/12/19 10:14:28;;;;;;;4.20;3.13;;;8.20;99.90;;;;;;5066759;28;20203;-55
2021/12/19 10:16:57;;;;;;;6.17;3.13;;;8.30;99.90;;;;;;5058192;28;20293;-57
2021/12/19 10:19:49;;;;;;;5.17;2.93;;;8.30;99.90;;;;;;5057959;28;20269;-56
2021/12/19 10:22:30;;;;;;;4.37;2.67;;;8.10;99.90;;;;;;5059558;28;20338;-55
2021/12/19 10:25:19;;;;;;;4.17;3.00;;;8.20;99.90;;;;;;5060331;28;20200;-55
2021/12/19 10:27:47;;;;;;;4.93;2.43;;;8.10;99.90;;;;;;5063003;28;20308;-54
2021/12/19 10:30:31;;;;;;;6.70;3.40;;;8.20;99.90;;;;;;5064017;28;20219;-55
2021/12/19 10:33:02;;;;;;;3.33;2.53;;;8.40;99.90;;;;;;5064236;28;20301;-56
2021/12/19 10:35:39;;;;;;;2.57;1.73;;;8.40;99.90;;;;;;5061532;28;20287;-54
2021/12/19 10:38:22;;;;;;;3.47;1.87;;;8.30;99.90;;;;;;5064387;28;20250;-54
2021/12/19 10:40:50;;;;;;;3.07;1.80;;;8.30;99.90;;;;;;5072778;28;20712;-54
2021/12/19 10:43:18;;;;;;;4.40;1.77;;;8.30;99.90;;;;;;5077868;28;20339;-54
2021/12/19 10:45:54;;;;;;;2.50;1.63;;;8.10;99.90;;;;;;5062566;28;20581;-54
2021/12/19 10:48:28;;;;;;;1.70;1.37;;;8.10;99.90;;;;;;5063464;28;20308;-54
2021/12/19 10:51:06;;;;;;;3.13;1.77;;;8.20;99.90;;;;;;5069408;28;20218;-57
2021/12/19 10:53:43;;;;;;;2.83;2.30;;;8.20;99.90;;;;;;5055869;28;20282;-55
2021/12/19 10:56:18;;;;;;;4.20;1.57;;;8.30;99.90;;;;;;5061058;28;20253;-54
2021/12/19 10:58:56;;;;;;;2.43;1.70;;;8.20;99.90;;;;;;5061905;28;20607;-54
2021/12/19 11:01:29;;;;;;;2.67;1.73;;;8.30;99.90;;;;;;5053743;28;20248;-58
2021/12/19 11:04:06;;;;;;;4.13;2.10;;;8.30;99.90;;;;;;5062340;28;20210;-55
2021/12/19 11:06:46;;;;;;;2.27;1.50;;;8.30;99.90;;;;;;5065153;28;20250;-56
2021/12/19 11:09:19;;;;;;;2.23;1.40;;;8.20;99.90;;;;;;5070923;28;20692;-56
2021/12/19 11:11:56;;;;;;;2.73;1.60;;;8.10;99.90;;;;;;5073171;28;20286;-56
2021/12/19 11:14:31;;;;;;;1.70;1.03;;;8.20;99.90;;;;;;5063143;28;20642;-55
2021/12/19 11:17:01;;;;;;;2.20;0.97;;;8.10;99.90;;;;;;5064216;28;20209;-54
2021/12/19 11:19:28;;;;;;;1.57;1.10;;;8.20;99.90;;;;;;5065465;28;20585;-55
2021/12/19 11:22:23;;;;;;;1.17;0.73;;;8.10;99.90;;;;;;5061496;28;20206;-57
2021/12/19 11:24:55;;;;;;;1.30;1.10;;;8.10;99.90;;;;;;5056960;28;20632;-54
2021/12/19 11:27:22;;;;;;;4.07;2.03;;;8.30;99.90;;;;;;5064708;28;20873;-56
2021/12/19 11:29:54;;;;;;;2.93;1.43;;;8.30;99.90;;;;;;5064779;28;20293;-55
2021/12/19 11:32:29;;;;;;;3.67;1.50;;;8.20;99.90;;;;;;5063351;28;20195;-56
2021/12/19 11:35:01;;;;;;;2.13;1.47;;;8.30;99.90;;;;;;5060773;28;20711;-55
2021/12/19 11:37:51;;;;;;;6.30;1.73;;;8.30;99.90;;;;;;5058409;28;20192;-56
2021/12/19 11:40:20;;;;;;;2.53;1.57;;;8.30;99.90;;;;;;5062494;28;20224;-55
2021/12/19 11:42:47;;;;;;;3.57;2.20;;;8.30;99.90;;;;;;5074569;28;20213;-55
2021/12/19 11:47:52;;;;;;;4.40;1.63;;;8.20;99.90;;;;;;5054693;28;20312;-56
2021/12/19 11:50:22;;;;;;;4.10;2.10;;;8.30;99.90;;;;;;5059574;28;20208;-57
2021/12/19 11:52:58;;;;;;;2.20;1.63;;;8.30;99.90;;;;;;5053608;28;20637;-56
2021/12/19 11:55:28;;;;;;;5.67;2.20;;;8.20;99.90;;;;;;5055003;28;20234;-57
2021/12/19 11:58:08;;;;;;;3.93;2.17;;;8.40;99.90;;;;;;5054460;28;20218;-55
2021/12/19 12:00:36;;;;;;;3.20;1.83;;;8.60;99.90;;;;;;5055308;28;20333;-56
2021/12/19 12:03:12;;;;;;;2.47;1.40;;;8.50;99.90;;;;;;5061155;28;20562;-55
2021/12/19 12:05:40;;;;;;;2.23;1.80;;;8.50;99.90;;;;;;5053771;28;20210;-57
2021/12/19 12:08:07;;;;;;;2.90;2.10;;;8.50;99.90;;;;;;5057202;28;20600;-55
2021/12/19 12:10:54;;;;;;;2.30;2.10;;;8.50;99.90;;;;;;5058547;28;20238;-55
2021/12/19 12:13:41;;;;;;;3.23;2.23;;;8.40;99.90;;;;;;5058728;28;20230;-54
2021/12/19 12:16:26;;;;;;;3.47;2.53;;;8.30;99.90;;;;;;5061379;28;20212;-55
2021/12/19 12:19:05;;;;;;;6.90;2.20;;;8.30;99.90;;;;;;5053255;28;20508;-56
2021/12/19 12:24:14;;;;;;;8.63;2.90;;;8.40;99.90;;;;;;5052629;28;20316;-55
2021/12/19 12:26:57;;;;;;;4.43;2.83;;;8.40;99.90;;;;;;5056255;28;20210;-56
2021/12/19 12:29:25;;;;;;;5.63;2.80;;;8.30;99.90;;;;;;5045830;28;20591;-55
2021/12/19 12:31:53;;;;;;;4.27;2.70;;;8.30;99.90;;;;;;5051890;28;20332;-56
2021/12/19 12:34:21;;;;;;;5.87;3.37;;;8.40;99.90;;;;;;5041865;28;20287;-55
2021/12/19 12:36:49;;;;;;;5.50;2.97;;;8.40;99.90;;;;;;5030607;28;20211;-55
2021/12/19 12:39:21;;;;;;;8.87;3.50;;;8.40;99.90;;;;;;5032865;28;20278;-55
2021/12/19 12:41:58;;;;;;;5.83;3.40;;;8.40;99.90;;;;;;5037144;28;20735;-55
2021/12/19 12:44:26;;;;;;;5.60;3.60;;;8.40;99.90;;;;;;5049723;28;20294;-55
2021/12/19 12:46:53;;;;;;;8.37;3.40;;;8.50;99.90;;;;;;5034785;28;20671;-53
2021/12/19 12:49:24;;;;;;;5.33;3.23;;;8.30;99.90;;;;;;5032506;28;20303;-54
2021/12/19 12:51:57;;;;;;;10.97;3.53;;;8.40;99.90;;;;;;5041653;28;20321;-54
2021/12/19 12:54:30;;;;;;;12.23;3.97;;;8.40;99.90;;;;;;5060074;28;20195;-54
2021/12/19 12:57:00;;;;;;;8.57;3.90;;;8.40;99.90;;;;;;5055594;28;20550;-55
2021/12/19 12:59:33;;;;;;;5.33;3.60;;;8.40;99.90;;;;;;5051615;28;20233;-54
2021/12/19 13:04:42;;;;;;;9.07;3.23;;;8.40;99.90;;;;;;5070969;28;20623;-55
2021/12/19 13:07:10;;;;;;;5.97;3.07;;;8.40;99.90;;;;;;5066008;28;20335;-55
2021/12/19 13:09:43;;;;;;;7.87;2.87;;;8.30;99.90;;;;;;5069655;28;20206;-57
2021/12/19 13:12:21;;;;;;;5.70;2.90;;;8.30;99.90;;;;;;5064605;28;20682;-56
2021/12/19 13:15:04;;;;;;;5.23;3.00;;;8.30;99.90;;;;;;5053720;28;20304;-55
2021/12/19 13:17:39;;;;;;;4.70;3.27;;;8.40;99.90;;;;;;5061564;28;20293;-55
2021/12/19 13:20:13;;;;;;;5.20;2.53;;;8.50;99.90;;;;;;5059916;28;20212;-55
2021/12/19 13:22:50;;;;;;;6.27;2.80;;;8.50;99.90;;;;;;5060967;28;20210;-55
2021/12/19 13:25:18;;;;;;;3.17;2.30;;;8.50;99.90;;;;;;5065176;28;20223;-55
2021/12/19 13:27:48;;;;;;;4.67;2.60;;;8.50;99.90;;;;;;5052210;28;20327;-57
2021/12/19 13:30:31;;;;;;;5.93;3.03;;;8.50;99.90;;;;;;5047441;28;20296;-57
2021/12/19 13:33:07;;;;;;;8.60;3.10;;;8.50;99.90;;;;;;5058479;28;20288;-54
2021/12/19 13:35:35;;;;;;;5.47;2.27;;;8.40;99.90;;;;;;5056572;28;20201;-55
2021/12/19 13:38:12;;;;;;;4.63;2.47;;;8.40;99.90;;;;;;5070765;28;20225;-54
2021/12/19 13:40:47;;;;;;;5.13;2.27;;;8.40;99.90;;;;;;5064825;28;20253;-54
2021/12/19 13:43:17;;;;;;;5.67;2.30;;;8.40;99.90;;;;;;5067255;28;20734;-55
2021/12/19 13:45:56;;;;;;;5.37;2.70;;;8.40;99.90;;;;;;5059276;28;20638;-55
2021/12/19 13:48:30;;;;;;;8.67;2.33;;;8.40;99.90;;;;;;5048877;28;20238;-56
2021/12/19 13:50:57;;;;;;;4.63;2.57;;;8.40;99.90;;;;;;5062878;28;20197;-55
2021/12/19 13:53:26;;;;;;;4.20;1.77;;;8.50;99.90;;;;;;5068306;28;20240;-55
2021/12/19 13:56:04;;;;;;;3.13;2.37;;;8.50;99.90;;;;;;5065975;28;20776;-55
2021/12/19 13:58:52;;;;;;;8.10;2.70;;;8.40;99.90;;;;;;5068416;28;20225;-55
2021/12/19 14:01:23;;;;;;;4.13;2.20;;;8.40;99.90;;;;;;5076861;28;20270;-55
2021/12/19 14:04:01;;;;;;;6.83;2.60;;;8.40;99.90;;;;;;5063532;28;20365;-54
2021/12/19 14:06:37;;;;;;;4.57;2.60;;;8.40;99.90;;;;;;5063755;28;20193;-55
2021/12/19 14:09:07;;;;;;;4.33;2.90;;;8.30;99.90;;;;;;5070031;28;20230;-55
2021/12/19 14:11:35;;;;;;;4.30;2.30;;;8.30;99.90;;;;;;5059596;28;20198;-54
2021/12/19 14:14:08;;;;;;;6.07;2.27;;;8.30;99.90;;;;;;5062666;28;20214;-55
2021/12/19 14:16:37;;;;;;;6.23;2.60;;;8.20;99.90;;;;;;5070272;28;20617;-54
2021/12/19 14:19:20;;;;;;;9.63;2.93;;;8.10;99.90;;;;;;5056411;28;20302;-55
2021/12/19 14:21:49;;;;;;;5.57;2.30;;;8.20;99.90;;;;;;5056622;28;20940;-55
2021/12/19 14:24:38;;;;;;;5.37;2.43;;;8.30;99.90;;;;;;5055567;28;20335;-55
2021/12/19 14:27:20;;;;;;;5.37;1.83;;;8.20;99.90;;;;;;5052537;28;20372;-54
2021/12/19 14:30:17;;;;;;;4.00;2.20;;;8.30;99.90;;;;;;5055642;28;20278;-56
2021/12/19 14:32:48;;;;;;;4.07;2.30;;;8.30;99.90;;;;;;5059571;28;20236;-57
2021/12/19 14:35:24;;;;;;;3.83;2.10;;;8.30;99.90;;;;;;5054852;28;20665;-55
2021/12/19 14:37:57;;;;;;;4.50;2.00;;;8.40;99.90;;;;;;5055494;28;20210;-55
2021/12/19 14:40:25;;;;;;;4.80;1.73;;;8.40;99.90;;;;;;5060446;28;21601;-55